Ida Theresa — V7RQ9 — position and weather

sailwx.info

Track history (hours):
 
Tides and Currents Weather Stations Pressure Air Temp Water Temp Dewpoint Dewpoint Depression Visibility Wind Speed Wind Dir Waves Ship Positions

Ida Theresa

Last reported at 2014-Oct-22 09:33 UTC. Time now 2014-Oct-22 09:40 UTC.
Position N 36°13' W 004°60'.

Length 121 m; draft 4.8 m.

Type: Tanker. MMSI: 538090386.

Date/timePositionNaut miles runAvg speedWind from/ knotsBaromVisibWave heightAir tempDewpointWater temp
2014-Oct-22 09:33N 36°13' W 004°60'0 0.4
2014-Oct-22 08:28N 36°13' W 004°60'0 0.3
2014-Oct-22 07:30N 36°13' W 004°59'5 5.8
2014-Oct-22 06:33N 36°18' W 005°00'1 1.0
2014-Oct-22 05:33N 36°19' W 005°01'1 0.9
2014-Oct-22 04:33N 36°20' W 005°02'1 1.0
2014-Oct-22 03:33N 36°19' W 005°03'1 1.1
2014-Oct-22 02:33N 36°19' W 005°04'1 1.4
2014-Oct-22 01:33N 36°17' W 005°04'2 1.9
2014-Oct-22 00:33N 36°15' W 005°05'2 1.6
2014-Oct-21 23:33N 36°14' W 005°04'1 1.1
2014-Oct-21 22:31N 36°13' W 005°03'1 1.0
2014-Oct-21 21:33N 36°13' W 005°02'8 1.7
2014-Oct-21 17:04N 36°09' W 005°10'712.1
2014-Oct-21 16:31N 36°05' W 005°16'7 7.5
2014-Oct-21 15:33N 36°06' W 005°25'0 0.1
2014-Oct-21 14:22N 36°06' W 005°25'0 0.1
2014-Oct-21 13:28N 36°06' W 005°25'0 0.0
2014-Oct-21 12:31N 36°06' W 005°25'0 0.0
2014-Oct-21 11:31N 36°06' W 005°25'0 0.0
2014-Oct-21 10:22N 36°06' W 005°25'0 0.0
2014-Oct-21 09:31N 36°06' W 005°25'0 0.0
2014-Oct-21 08:31N 36°06' W 005°25'0 0.0
2014-Oct-21 07:31N 36°06' W 005°25'0 0.0
2014-Oct-21 06:31N 36°06' W 005°25'0 0.1
2014-Oct-21 05:31N 36°06' W 005°25'0 0.0
2014-Oct-20 23:19N 36°06' W 005°25'0 0.1
2014-Oct-20 22:31N 36°06' W 005°25'0 0.0
2014-Oct-20 21:31N 36°06' W 005°25'0 0.0
2014-Oct-20 20:31N 36°06' W 005°25'0 0.0
2014-Oct-20 19:31N 36°06' W 005°25'0 0.0
2014-Oct-20 14:31N 36°06' W 005°25'0 0.0
2014-Oct-20 13:31N 36°06' W 005°25'0 0.0
2014-Oct-20 12:13N 36°06' W 005°25'0 0.0
2014-Oct-20 11:28N 36°06' W 005°25'0 0.0
2014-Oct-20 10:31N 36°06' W 005°25'0 0.0
2014-Oct-20 09:31N 36°06' W 005°25'0 0.0
2014-Oct-20 07:31N 36°06' W 005°25'0 0.0
2014-Oct-20 06:31N 36°06' W 005°25'0 0.0
2014-Oct-20 05:31N 36°06' W 005°25'0 0.0
2014-Oct-20 04:28N 36°06' W 005°25'0 0.0
2014-Oct-20 03:31N 36°06' W 005°25'0 0.0
2014-Oct-20 02:25N 36°06' W 005°25'0 0.0
2014-Oct-20 01:31N 36°06' W 005°25'0 0.0
2014-Oct-20 00:31N 36°06' W 005°25'0 0.0
2014-Oct-19 22:31N 36°06' W 005°25'0 0.0
2014-Oct-19 21:31N 36°06' W 005°25'0 0.0
2014-Oct-19 20:28N 36°06' W 005°25'0 0.1
2014-Oct-19 19:28N 36°06' W 005°25'0 0.0
2014-Oct-19 18:31N 36°06' W 005°25'0 0.0
2014-Oct-19 17:31N 36°06' W 005°25'0 0.0
2014-Oct-19 16:22N 36°06' W 005°25'0 0.0
2014-Oct-19 14:31N 36°06' W 005°25'0 0.0
2014-Oct-19 13:31N 36°06' W 005°25'0 0.0
2014-Oct-19 12:28N 36°06' W 005°25'0 0.0
2014-Oct-19 11:31N 36°06' W 005°25'0 0.0
2014-Oct-19 10:28N 36°06' W 005°25'0 0.0
2014-Oct-19 09:31N 36°06' W 005°25'0 0.1
2014-Oct-19 08:31N 36°06' W 005°25'0 0.0
2014-Oct-19 07:31N 36°06' W 005°25'0 0.1
2014-Oct-19 06:28N 36°06' W 005°25'0 0.1
2014-Oct-19 05:28N 36°06' W 005°25'0 0.0
2014-Oct-19 04:31N 36°06' W 005°25'0 0.0
2014-Oct-19 03:31N 36°06' W 005°25'0 0.0
2014-Oct-19 02:31N 36°06' W 005°25'2 2.0
2014-Oct-19 01:34N 36°05' W 005°23'9 8.7
2014-Oct-19 00:34N 35°58' W 005°29'2411.2
2014-Oct-18 22:28N 35°54' W 005°58'1010.6
2014-Oct-18 21:33N 35°54' W 006°10'1110.5
2014-Oct-18 20:33N 35°56' W 006°23'  
Track history (hours):
 
Tides and Currents Weather Stations Pressure Air Temp Water Temp Dewpoint Dewpoint Depression Visibility Wind Speed Wind Dir Waves Ship Positions

Ida Theresa

Last reported at 2014-Oct-22 09:33 UTC. Time now 2014-Oct-22 09:40 UTC.
Position N 36°13' W 004°60'.

Length 121 m; draft 4.8 m.

Type: Tanker. MMSI: 538090386.

Date/timePositionNaut miles runAvg speedWind from/ knotsBaromVisibWave heightAir tempDewpointWater temp
2014-Oct-22 09:33N 36°13' W 004°60'0 0.4
2014-Oct-22 08:28N 36°13' W 004°60'0 0.3
2014-Oct-22 07:30N 36°13' W 004°59'5 5.8
2014-Oct-22 06:33N 36°18' W 005°00'1 1.0
2014-Oct-22 05:33N 36°19' W 005°01'1 0.9
2014-Oct-22 04:33N 36°20' W 005°02'1 1.0
2014-Oct-22 03:33N 36°19' W 005°03'1 1.1
2014-Oct-22 02:33N 36°19' W 005°04'1 1.4
2014-Oct-22 01:33N 36°17' W 005°04'2 1.9
2014-Oct-22 00:33N 36°15' W 005°05'2 1.6
2014-Oct-21 23:33N 36°14' W 005°04'1 1.1
2014-Oct-21 22:31N 36°13' W 005°03'1 1.0
2014-Oct-21 21:33N 36°13' W 005°02'8 1.7
2014-Oct-21 17:04N 36°09' W 005°10'712.1
2014-Oct-21 16:31N 36°05' W 005°16'7 7.5
2014-Oct-21 15:33N 36°06' W 005°25'0 0.1
2014-Oct-21 14:22N 36°06' W 005°25'0 0.1
2014-Oct-21 13:28N 36°06' W 005°25'0 0.0
2014-Oct-21 12:31N 36°06' W 005°25'0 0.0
2014-Oct-21 11:31N 36°06' W 005°25'0 0.0
2014-Oct-21 10:22N 36°06' W 005°25'0 0.0
2014-Oct-21 09:31N 36°06' W 005°25'0 0.0
2014-Oct-21 08:31N 36°06' W 005°25'0 0.0
2014-Oct-21 07:31N 36°06' W 005°25'0 0.0
2014-Oct-21 06:31N 36°06' W 005°25'0 0.1
2014-Oct-21 05:31N 36°06' W 005°25'0 0.0
2014-Oct-20 23:19N 36°06' W 005°25'0 0.1
2014-Oct-20 22:31N 36°06' W 005°25'0 0.0
2014-Oct-20 21:31N 36°06' W 005°25'0 0.0
2014-Oct-20 20:31N 36°06' W 005°25'0 0.0
2014-Oct-20 19:31N 36°06' W 005°25'0 0.0
2014-Oct-20 14:31N 36°06' W 005°25'0 0.0
2014-Oct-20 13:31N 36°06' W 005°25'0 0.0
2014-Oct-20 12:13N 36°06' W 005°25'0 0.0
2014-Oct-20 11:28N 36°06' W 005°25'0 0.0
2014-Oct-20 10:31N 36°06' W 005°25'0 0.0
2014-Oct-20 09:31N 36°06' W 005°25'0 0.0
2014-Oct-20 07:31N 36°06' W 005°25'0 0.0
2014-Oct-20 06:31N 36°06' W 005°25'0 0.0
2014-Oct-20 05:31N 36°06' W 005°25'0 0.0
2014-Oct-20 04:28N 36°06' W 005°25'0 0.0
2014-Oct-20 03:31N 36°06' W 005°25'0 0.0
2014-Oct-20 02:25N 36°06' W 005°25'0 0.0
2014-Oct-20 01:31N 36°06' W 005°25'0 0.0
2014-Oct-20 00:31N 36°06' W 005°25'0 0.0
2014-Oct-19 22:31N 36°06' W 005°25'0 0.0
2014-Oct-19 21:31N 36°06' W 005°25'0 0.0
2014-Oct-19 20:28N 36°06' W 005°25'0 0.1
2014-Oct-19 19:28N 36°06' W 005°25'0 0.0
2014-Oct-19 18:31N 36°06' W 005°25'0 0.0
2014-Oct-19 17:31N 36°06' W 005°25'0 0.0
2014-Oct-19 16:22N 36°06' W 005°25'0 0.0
2014-Oct-19 14:31N 36°06' W 005°25'0 0.0
2014-Oct-19 13:31N 36°06' W 005°25'0 0.0
2014-Oct-19 12:28N 36°06' W 005°25'0 0.0
2014-Oct-19 11:31N 36°06' W 005°25'0 0.0
2014-Oct-19 10:28N 36°06' W 005°25'0 0.0
2014-Oct-19 09:31N 36°06' W 005°25'0 0.1
2014-Oct-19 08:31N 36°06' W 005°25'0 0.0
2014-Oct-19 07:31N 36°06' W 005°25'0 0.1
2014-Oct-19 06:28N 36°06' W 005°25'0 0.1
2014-Oct-19 05:28N 36°06' W 005°25'0 0.0
2014-Oct-19 04:31N 36°06' W 005°25'0 0.0
2014-Oct-19 03:31N 36°06' W 005°25'0 0.0
2014-Oct-19 02:31N 36°06' W 005°25'2 2.0
2014-Oct-19 01:34N 36°05' W 005°23'9 8.7
2014-Oct-19 00:34N 35°58' W 005°29'2411.2
2014-Oct-18 22:28N 35°54' W 005°58'1010.6
2014-Oct-18 21:33N 35°54' W 006°10'1110.5
2014-Oct-18 20:33N 35°56' W 006°23'  

Dump ship's entire track history